createdAt,value
2023-01-22T00:01:12.628Z,28.58
2023-01-22T00:03:41.261Z,21.95
2023-01-22T00:06:10.285Z,24.52
2023-01-22T00:08:37.932Z,20.70
2023-01-22T00:11:05.551Z,24.92
2023-01-22T00:13:32.607Z,27.08
2023-01-22T00:16:00.992Z,22.77
2023-01-22T00:18:28.134Z,25.67
2023-01-22T00:20:55.732Z,25.08
2023-01-22T00:23:23.686Z,23.63
2023-01-22T00:26:00.381Z,26.45
2023-01-22T00:28:27.407Z,29.63
2023-01-22T00:30:58.915Z,29.73
2023-01-22T00:33:26.296Z,31.77
2023-01-22T00:35:53.395Z,33.75
2023-01-22T00:38:20.447Z,32.97
2023-01-22T00:40:47.568Z,34.70
2023-01-22T00:43:14.621Z,34.95
2023-01-22T00:45:41.799Z,31.05
2023-01-22T00:48:08.847Z,28.60
2023-01-22T00:50:35.939Z,32.80
2023-01-22T00:53:04.237Z,33.28
2023-01-22T00:55:31.439Z,29.73
2023-01-22T00:57:58.546Z,36.67
2023-01-22T01:00:25.574Z,29.60
2023-01-22T01:03:11.051Z,30.52
2023-01-22T01:05:38.205Z,31.48
2023-01-22T01:08:05.416Z,28.88
2023-01-22T01:10:32.615Z,27.88
2023-01-22T01:12:59.740Z,32.60
2023-01-22T01:15:26.957Z,24.33
2023-01-22T01:17:54.043Z,21.63
2023-01-22T01:20:21.608Z,22.48
2023-01-22T01:22:48.712Z,23.63
2023-01-22T01:25:15.902Z,27.48
2023-01-22T01:27:43.037Z,26.25
2023-01-22T01:30:10.789Z,23.48
2023-01-22T01:32:37.983Z,24.88
2023-01-22T01:35:06.261Z,23.55
2023-01-22T01:37:33.280Z,25.90
2023-01-22T01:40:00.321Z,24.05
2023-01-22T01:42:32.178Z,22.42
2023-01-22T01:45:30.180Z,26.52
2023-01-22T01:48:20.612Z,26.92
2023-01-22T01:51:07.048Z,20.58
2023-01-22T01:53:35.401Z,25.38
2023-01-22T01:56:09.333Z,21.73
2023-01-22T01:58:38.662Z,20.52
2023-01-22T02:01:10.660Z,22.52
2023-01-22T02:03:39.528Z,22.23
2023-01-22T02:06:10.034Z,17.63
2023-01-22T02:08:37.187Z,22.02
2023-01-22T02:11:04.430Z,21.63
2023-01-22T02:13:33.926Z,18.98
2023-01-22T02:16:01.094Z,21.38
2023-01-22T02:18:28.455Z,18.92
2023-01-22T02:21:01.149Z,25.02
2023-01-22T02:23:30.904Z,22.40
2023-01-22T02:25:59.116Z,21.42
2023-01-22T02:28:26.280Z,23.33
2023-01-22T02:30:53.315Z,20.45
2023-01-22T02:33:20.422Z,19.50
2023-01-22T02:35:47.559Z,19.38
2023-01-22T02:38:14.702Z,22.40
2023-01-22T02:40:49.894Z,21.10
2023-01-22T02:43:17.288Z,21.00
2023-01-22T02:45:44.481Z,24.92
2023-01-22T02:48:11.743Z,19.48
2023-01-22T02:50:39.207Z,18.77
2023-01-22T02:53:06.291Z,24.08
2023-01-22T02:55:33.404Z,17.88
2023-01-22T02:58:00.462Z,21.98
2023-01-22T03:00:27.573Z,21.67
2023-01-22T03:02:54.659Z,18.58
2023-01-22T03:05:21.719Z,17.73
2023-01-22T03:07:48.799Z,20.00
2023-01-22T03:10:19.076Z,17.17
2023-01-22T03:13:05.890Z,15.93
2023-01-22T03:15:51.818Z,19.70
2023-01-22T03:18:37.381Z,17.38
2023-01-22T03:21:17.058Z,15.73
2023-01-22T03:23:50.143Z,13.88
2023-01-22T03:26:18.329Z,14.35
2023-01-22T03:28:46.212Z,16.92
2023-01-22T03:31:14.870Z,15.48
2023-01-22T03:33:42.741Z,16.58
2023-01-22T03:36:12.687Z,17.60
2023-01-22T03:38:40.013Z,14.82
2023-01-22T03:41:10.928Z,17.23
2023-01-22T03:43:38.039Z,15.77
2023-01-22T03:46:16.617Z,15.00
2023-01-22T03:48:44.331Z,15.45
2023-01-22T03:51:16.793Z,14.18
2023-01-22T03:53:44.695Z,17.00
2023-01-22T03:56:15.433Z,12.05
2023-01-22T03:58:42.554Z,16.40
2023-01-22T04:01:12.719Z,13.50
2023-01-22T04:03:41.346Z,14.65
2023-01-22T04:06:10.741Z,14.48
2023-01-22T04:08:39.450Z,14.25
2023-01-22T04:11:07.014Z,18.45
2023-01-22T04:13:35.984Z,13.65
2023-01-22T04:16:03.316Z,17.17
2023-01-22T04:18:30.425Z,16.35
2023-01-22T04:20:57.865Z,16.20
2023-01-22T04:23:25.565Z,13.90
2023-01-22T04:25:53.208Z,15.90
2023-01-22T04:28:20.933Z,16.58
2023-01-22T04:30:52.285Z,15.27
2023-01-22T04:33:19.933Z,16.77
2023-01-22T04:35:51.476Z,14.45
2023-01-22T04:38:18.910Z,19.33
2023-01-22T04:40:46.242Z,15.52
2023-01-22T04:43:13.274Z,16.80
2023-01-22T04:45:40.334Z,19.38
2023-01-22T04:48:08.766Z,16.30
2023-01-22T04:50:36.073Z,16.02
2023-01-22T04:53:03.365Z,18.25
2023-01-22T04:55:30.826Z,15.43
2023-01-22T04:57:59.645Z,16.98
2023-01-22T05:00:28.374Z,16.48
2023-01-22T05:03:00.061Z,18.45
2023-01-22T05:05:28.014Z,16.27
2023-01-22T05:07:55.467Z,17.98
2023-01-22T05:10:22.986Z,18.10
2023-01-22T05:12:50.199Z,18.50
2023-01-22T05:15:28.718Z,15.85
2023-01-22T05:17:56.113Z,18.20
2023-01-22T05:20:23.187Z,16.38
2023-01-22T05:22:50.349Z,18.63
2023-01-22T05:25:17.673Z,17.85
2023-01-22T05:27:44.985Z,18.08
2023-01-22T05:30:13.007Z,19.83
2023-01-22T05:32:41.261Z,16.15
2023-01-22T05:35:08.704Z,15.45
2023-01-22T05:37:35.761Z,14.50
2023-01-22T05:40:05.441Z,13.30
2023-01-22T05:42:32.779Z,14.40
2023-01-22T05:44:59.959Z,15.55
2023-01-22T05:47:27.063Z,15.93
2023-01-22T05:49:54.128Z,16.50
2023-01-22T05:52:21.333Z,15.75
2023-01-22T05:54:48.445Z,17.75
2023-01-22T05:57:15.672Z,13.75
2023-01-22T05:59:42.744Z,16.23
2023-01-22T06:02:10.189Z,14.48
2023-01-22T06:04:37.307Z,14.18
2023-01-22T06:07:04.387Z,16.45
2023-01-22T06:09:31.590Z,14.73
2023-01-22T06:11:58.628Z,14.70
2023-01-22T06:14:28.167Z,16.70
2023-01-22T06:16:55.313Z,16.67
2023-01-22T06:19:22.431Z,16.33
2023-01-22T06:21:50.068Z,16.05
2023-01-22T06:24:17.120Z,14.25
2023-01-22T06:26:44.198Z,15.18
2023-01-22T06:29:11.323Z,13.05
2023-01-22T06:31:38.515Z,13.35
2023-01-22T06:34:05.965Z,12.77
2023-01-22T06:36:33.066Z,11.75
2023-01-22T06:39:00.301Z,14.60
2023-01-22T06:41:27.370Z,12.60
2023-01-22T06:43:54.455Z,12.88
2023-01-22T06:46:21.655Z,12.75
2023-01-22T06:48:49.984Z,14.23
2023-01-22T06:51:17.469Z,11.73
2023-01-22T06:53:44.613Z,11.95
2023-01-22T06:56:11.760Z,12.63
2023-01-22T06:58:38.825Z,13.75
2023-01-22T07:01:07.121Z,13.23
2023-01-22T07:03:34.428Z,13.35
2023-01-22T07:06:04.096Z,12.45
2023-01-22T07:08:33.236Z,13.93
2023-01-22T07:11:01.101Z,12.75
2023-01-22T07:13:28.201Z,13.77
2023-01-22T07:15:55.277Z,11.23
2023-01-22T07:18:24.124Z,11.52
2023-01-22T07:20:51.312Z,13.35
2023-01-22T07:23:18.643Z,12.63
2023-01-22T07:25:46.243Z,10.68
2023-01-22T07:28:18.008Z,12.40
2023-01-22T07:30:47.181Z,11.85
2023-01-22T07:33:15.689Z,12.45
2023-01-22T07:35:43.155Z,11.32
2023-01-22T07:38:10.226Z,11.50
2023-01-22T07:40:37.466Z,10.70
2023-01-22T07:43:07.651Z,12.40
2023-01-22T07:45:35.953Z,10.68
2023-01-22T07:48:04.287Z,13.20
2023-01-22T07:50:32.412Z,10.35
2023-01-22T07:53:02.698Z,11.38
2023-01-22T07:55:31.552Z,10.77
2023-01-22T07:58:03.895Z,10.55
2023-01-22T08:00:32.015Z,10.77
2023-01-22T08:02:59.144Z,12.88
2023-01-22T08:05:27.060Z,10.63
2023-01-22T08:07:54.223Z,9.85
2023-01-22T08:10:21.684Z,10.45
2023-01-22T08:12:48.762Z,10.60
2023-01-22T08:15:16.237Z,12.20
2023-01-22T08:17:43.541Z,11.02
2023-01-22T08:20:11.498Z,9.52
2023-01-22T08:22:38.918Z,9.05
2023-01-22T08:25:06.647Z,11.30
2023-01-22T08:27:37.536Z,9.68
2023-01-22T08:30:05.535Z,8.18
2023-01-22T08:32:32.729Z,9.57
2023-01-22T08:35:00.823Z,10.32
2023-01-22T08:37:27.953Z,8.55
2023-01-22T08:39:55.094Z,10.07
2023-01-22T08:42:22.319Z,8.55
2023-01-22T08:44:49.363Z,10.88
2023-01-22T08:47:16.585Z,12.68
2023-01-22T08:49:43.721Z,9.35
2023-01-22T08:52:10.925Z,8.23
2023-01-22T08:54:38.028Z,10.98
2023-01-22T08:57:05.281Z,11.52
2023-01-22T08:59:32.303Z,12.85
2023-01-22T09:02:01.431Z,11.68
2023-01-22T09:04:29.334Z,11.63
2023-01-22T09:06:56.549Z,9.88
2023-01-22T09:09:23.684Z,9.35
2023-01-22T09:11:50.757Z,8.82
2023-01-22T09:14:17.859Z,8.75
2023-01-22T09:16:45.082Z,7.93
2023-01-22T09:19:12.827Z,8.40
2023-01-22T09:21:40.552Z,6.40
2023-01-22T09:24:08.244Z,7.82
2023-01-22T09:26:37.063Z,8.60
2023-01-22T09:29:06.078Z,9.15
2023-01-22T09:31:37.188Z,7.60
2023-01-22T09:34:05.093Z,7.68
2023-01-22T09:36:32.559Z,7.60
2023-01-22T09:38:59.642Z,8.40
2023-01-22T09:41:50.230Z,7.43
2023-01-22T09:44:30.337Z,8.35
2023-01-22T09:47:04.910Z,8.43
2023-01-22T09:50:21.460Z,6.43
2023-01-22T09:52:51.707Z,9.05
2023-01-22T09:55:22.737Z,7.55
2023-01-22T09:57:54.015Z,8.93
2023-01-22T10:00:23.127Z,10.15
2023-01-22T10:03:10.709Z,8.30
2023-01-22T10:05:49.844Z,8.07
2023-01-22T10:08:21.270Z,6.88
2023-01-22T10:10:48.472Z,8.05
2023-01-22T10:13:18.317Z,6.65
2023-01-22T10:15:45.523Z,7.68
2023-01-22T10:18:44.198Z,9.15
2023-01-22T10:21:18.186Z,7.53
2023-01-22T10:23:45.674Z,8.52
2023-01-22T10:26:25.428Z,7.53
2023-01-22T10:28:56.859Z,8.60
2023-01-22T10:31:33.951Z,7.30
2023-01-22T10:34:10.047Z,7.72
2023-01-22T10:36:37.451Z,8.02
2023-01-22T10:39:11.710Z,6.97
2023-01-22T10:41:43.702Z,6.18
2023-01-22T10:44:25.568Z,7.70
2023-01-22T10:46:54.734Z,7.45
2023-01-22T10:49:24.401Z,6.53
2023-01-22T10:51:59.471Z,7.50
2023-01-22T10:54:43.936Z,5.88
2023-01-22T10:59:38.554Z,6.07
2023-01-22T11:02:20.906Z,5.70
2023-01-22T11:04:48.068Z,5.90
2023-01-22T11:07:20.829Z,5.55
2023-01-22T11:10:12.369Z,6.65
2023-01-22T11:12:46.806Z,5.80
2023-01-22T11:15:40.859Z,5.50
2023-01-22T11:18:08.404Z,5.75
2023-01-22T11:20:55.208Z,6.13
2023-01-22T11:23:31.931Z,5.65
2023-01-22T11:26:20.881Z,5.10
2023-01-22T11:29:05.228Z,6.68
2023-01-22T11:32:07.509Z,7.47
2023-01-22T11:34:59.441Z,5.60
2023-01-22T11:38:02.532Z,4.80
2023-01-22T11:40:33.384Z,5.90
2023-01-22T11:43:16.461Z,7.20
2023-01-22T11:46:13.398Z,6.25
2023-01-22T11:48:58.699Z,6.72
2023-01-22T11:51:44.754Z,4.75
2023-01-22T11:54:12.217Z,5.25
2023-01-22T11:57:04.031Z,6.47
2023-01-22T12:00:17.561Z,5.82
2023-01-22T12:02:51.932Z,4.85
2023-01-22T12:07:58.426Z,5.55
2023-01-22T12:10:54.759Z,5.90
2023-01-22T12:13:59.582Z,7.03
2023-01-22T12:16:41.344Z,6.57
2023-01-22T12:19:29.907Z,5.55
2023-01-22T12:22:22.432Z,6.38
2023-01-22T12:25:18.896Z,6.70
2023-01-22T12:28:19.362Z,5.22
2023-01-22T12:30:52.561Z,5.85
2023-01-22T12:33:29.858Z,5.20
2023-01-22T12:35:59.988Z,6.05
2023-01-22T12:38:47.027Z,7.15
2023-01-22T12:41:53.866Z,5.15
2023-01-22T12:44:39.232Z,6.82
2023-01-22T12:47:38.843Z,6.32
2023-01-22T12:50:21.482Z,6.10
2023-01-22T12:53:23.335Z,6.18
2023-01-22T12:56:30.793Z,7.40
2023-01-22T12:58:59.323Z,7.38
2023-01-22T13:01:34.249Z,7.43
2023-01-22T13:04:13.275Z,7.35
2023-01-22T13:06:42.499Z,6.10
2023-01-22T13:09:28.605Z,9.43
2023-01-22T13:11:55.627Z,6.90
2023-01-22T13:14:28.632Z,8.30
2023-01-22T13:17:00.386Z,8.43
2023-01-22T13:19:31.756Z,8.60
2023-01-22T13:22:00.740Z,9.98
2023-01-22T13:24:29.477Z,7.95
2023-01-22T13:27:00.567Z,12.38
2023-01-22T13:29:34.682Z,7.55
2023-01-22T13:34:33.570Z,10.85
2023-01-22T13:37:01.536Z,10.98
2023-01-22T13:39:33.501Z,10.90
2023-01-22T13:42:03.076Z,65.43
2023-01-22T13:44:42.184Z,11.20
2023-01-22T13:47:24.074Z,21.95
2023-01-22T13:49:51.425Z,23.58
2023-01-22T13:52:20.225Z,16.80
2023-01-22T13:54:59.433Z,20.98
2023-01-22T13:57:26.642Z,22.25
2023-01-22T13:59:59.597Z,22.50
2023-01-22T14:02:36.645Z,34.83
2023-01-22T14:05:04.217Z,16.00
2023-01-22T14:07:35.664Z,11.80
2023-01-22T14:10:24.538Z,12.45
2023-01-22T14:13:12.343Z,7.35
2023-01-22T14:15:41.688Z,9.80
2023-01-22T14:18:18.455Z,9.30
2023-01-22T14:20:47.637Z,11.73
2023-01-22T14:23:16.358Z,9.77
2023-01-22T14:25:46.598Z,9.43
2023-01-22T14:28:14.450Z,9.88
2023-01-22T14:30:41.938Z,11.02
2023-01-22T14:33:23.984Z,10.23
2023-01-22T14:35:52.358Z,9.93
2023-01-22T14:38:21.788Z,12.80
2023-01-22T14:40:49.380Z,9.20
2023-01-22T14:43:16.782Z,12.93
2023-01-22T14:45:45.747Z,10.23
2023-01-22T14:48:17.756Z,11.57
2023-01-22T14:50:46.608Z,20.35
2023-01-22T14:53:14.985Z,11.25
2023-01-22T14:55:43.007Z,11.13
2023-01-22T14:58:11.465Z,11.82
2023-01-22T15:00:39.974Z,16.05
2023-01-22T15:03:07.312Z,14.20
2023-01-22T15:05:35.810Z,11.05
2023-01-22T15:08:03.849Z,17.30
2023-01-22T15:10:31.187Z,11.95
2023-01-22T15:12:58.488Z,14.27
2023-01-22T15:15:27.205Z,13.90
2023-01-22T15:17:55.745Z,13.27
2023-01-22T15:20:23.353Z,13.07
2023-01-22T15:22:50.623Z,10.13
2023-01-22T15:25:18.617Z,11.60
2023-01-22T15:27:46.302Z,10.80
2023-01-22T15:30:14.534Z,9.75
2023-01-22T15:32:42.047Z,11.10
2023-01-22T15:35:09.833Z,10.38
2023-01-22T15:37:39.554Z,10.43
2023-01-22T15:40:07.918Z,12.13
2023-01-22T15:42:36.678Z,14.68
2023-01-22T15:45:05.182Z,12.85
2023-01-22T15:47:32.484Z,13.82
2023-01-22T15:49:59.771Z,17.45
2023-01-22T15:52:27.117Z,13.90
2023-01-22T15:54:54.551Z,14.52
2023-01-22T15:57:21.984Z,17.80
2023-01-22T15:59:49.248Z,14.18
2023-01-22T16:02:16.671Z,16.67
2023-01-22T16:04:44.016Z,14.32
2023-01-22T16:07:11.316Z,16.88
2023-01-22T16:09:39.127Z,16.20
2023-01-22T16:12:08.061Z,16.13
2023-01-22T16:14:35.900Z,16.90
2023-01-22T16:17:03.297Z,15.95
2023-01-22T16:19:30.921Z,18.25
2023-01-22T16:21:59.515Z,17.27
2023-01-22T16:24:27.933Z,18.38
2023-01-22T16:26:55.234Z,16.25
2023-01-22T16:29:22.758Z,16.85
2023-01-22T16:31:50.171Z,16.63
2023-01-22T16:34:20.010Z,14.30
2023-01-22T16:36:47.571Z,13.57
2023-01-22T16:39:19.877Z,14.82
2023-01-22T16:41:49.469Z,18.42
2023-01-22T16:44:19.281Z,15.50
2023-01-22T16:46:52.599Z,18.10
2023-01-22T16:49:25.450Z,17.97
2023-01-22T16:51:55.251Z,18.80
2023-01-22T16:54:28.823Z,16.40
2023-01-22T16:56:58.505Z,16.08
2023-01-22T16:59:27.289Z,16.95
2023-01-22T17:01:55.357Z,20.80
2023-01-22T17:04:23.798Z,14.48
2023-01-22T17:06:58.447Z,16.00
2023-01-22T17:09:30.502Z,13.85
2023-01-22T17:12:03.132Z,16.30
2023-01-22T17:14:35.274Z,14.90
2023-01-22T17:17:03.905Z,17.95
2023-01-22T17:19:31.297Z,21.73
2023-01-22T17:21:59.644Z,22.70
2023-01-22T17:24:28.295Z,20.00
2023-01-22T17:26:55.754Z,21.83
2023-01-22T17:29:23.104Z,18.00
2023-01-22T17:31:50.579Z,18.30
2023-01-22T17:34:18.647Z,19.38
2023-01-22T17:36:46.063Z,14.35
2023-01-22T17:39:17.785Z,19.98
2023-01-22T17:41:47.973Z,21.77
2023-01-22T17:44:15.383Z,17.88
2023-01-22T17:46:42.941Z,16.45
2023-01-22T17:49:11.543Z,20.40
2023-01-22T17:51:39.099Z,18.65
2023-01-22T17:54:07.003Z,16.88
2023-01-22T17:56:37.211Z,17.50
2023-01-22T17:59:07.459Z,21.00
2023-01-22T18:01:37.010Z,18.85
2023-01-22T18:04:08.173Z,19.35
2023-01-22T18:06:37.084Z,21.95
2023-01-22T18:09:06.946Z,19.58
2023-01-22T18:11:35.430Z,18.67
2023-01-22T18:14:17.610Z,20.08
2023-01-22T18:16:46.124Z,18.02
2023-01-22T18:19:13.517Z,18.42
2023-01-22T18:21:41.450Z,19.02
2023-01-22T18:24:09.741Z,20.83
2023-01-22T18:26:38.108Z,19.48
2023-01-22T18:29:06.097Z,23.15
2023-01-22T18:31:34.699Z,18.92
2023-01-22T18:34:04.546Z,21.65
2023-01-22T18:36:35.379Z,20.88
2023-01-22T18:39:09.009Z,21.48
2023-01-22T18:41:36.899Z,18.10
2023-01-22T18:44:04.207Z,20.98
2023-01-22T18:46:33.775Z,21.80
2023-01-22T18:49:05.503Z,21.63
2023-01-22T18:51:33.602Z,22.13
2023-01-22T18:54:02.600Z,24.85
2023-01-22T18:56:32.881Z,19.45
2023-01-22T18:59:00.050Z,17.92
2023-01-22T19:01:30.780Z,19.23
2023-01-22T19:04:00.628Z,17.05
2023-01-22T19:06:35.175Z,20.60
2023-01-22T19:09:14.351Z,17.08
2023-01-22T19:11:44.047Z,19.40
2023-01-22T19:14:15.530Z,21.40
2023-01-22T19:16:48.681Z,20.67
2023-01-22T19:19:16.528Z,16.10
2023-01-22T19:21:48.395Z,23.13
2023-01-22T19:24:17.550Z,21.98
2023-01-22T19:26:46.644Z,16.30
2023-01-22T19:29:17.646Z,18.80
2023-01-22T19:31:49.033Z,21.67
2023-01-22T19:34:23.758Z,20.63
2023-01-22T19:36:53.991Z,25.88
2023-01-22T19:39:21.617Z,21.27
2023-01-22T19:41:49.339Z,24.67
2023-01-22T19:44:18.006Z,28.75
2023-01-22T19:46:45.152Z,20.88
2023-01-22T19:49:13.419Z,23.92
2023-01-22T19:51:40.581Z,23.95
2023-01-22T19:54:08.768Z,19.63
2023-01-22T19:56:37.819Z,19.58
2023-01-22T19:59:11.434Z,20.08
2023-01-22T20:01:39.461Z,19.83
2023-01-22T20:04:09.085Z,18.15
2023-01-22T20:06:37.525Z,23.95
2023-01-22T20:09:04.910Z,23.30
2023-01-22T20:11:32.665Z,24.02
2023-01-22T20:14:00.865Z,24.45
2023-01-22T20:16:31.631Z,25.13
2023-01-22T20:19:03.633Z,24.63
2023-01-22T20:21:31.142Z,27.70
2023-01-22T20:23:58.235Z,19.80
2023-01-22T20:26:28.574Z,22.63
2023-01-22T20:28:56.421Z,20.77
2023-01-22T20:31:24.772Z,23.58
2023-01-22T20:33:55.732Z,21.90
2023-01-22T20:36:25.246Z,18.70
2023-01-22T20:38:54.517Z,19.30
2023-01-22T20:41:24.360Z,21.45
2023-01-22T20:43:54.556Z,21.27
2023-01-22T20:46:24.175Z,21.77
2023-01-22T20:48:51.924Z,23.30
2023-01-22T20:51:24.946Z,19.63
2023-01-22T20:53:53.997Z,24.15
2023-01-22T20:56:24.009Z,20.52
2023-01-22T20:59:09.467Z,21.20
2023-01-22T21:01:36.632Z,19.27
2023-01-22T21:04:04.437Z,21.52
2023-01-22T21:06:34.650Z,21.90
2023-01-22T21:09:02.442Z,21.95
2023-01-22T21:11:31.340Z,23.58
2023-01-22T21:13:59.960Z,24.80
2023-01-22T21:16:30.149Z,21.20
2023-01-22T21:19:03.510Z,17.23
2023-01-22T21:21:32.213Z,21.92
2023-01-22T21:23:59.763Z,21.35
2023-01-22T21:26:29.454Z,19.38
2023-01-22T21:29:00.985Z,22.83
2023-01-22T21:31:31.167Z,24.02
2023-01-22T21:34:02.921Z,19.15
2023-01-22T21:36:38.512Z,20.75
2023-01-22T21:39:12.907Z,22.80
2023-01-22T21:41:41.599Z,20.52
2023-01-22T21:44:33.304Z,25.45
2023-01-22T21:47:00.629Z,22.77
2023-01-22T21:49:28.520Z,23.05
2023-01-22T21:52:01.792Z,23.35
2023-01-22T21:54:34.518Z,26.00
2023-01-22T21:57:02.399Z,22.53
2023-01-22T21:59:29.886Z,22.75
2023-01-22T22:01:59.315Z,20.70
2023-01-22T22:04:27.408Z,19.05
2023-01-22T22:06:54.853Z,24.33
2023-01-22T22:09:25.057Z,22.45
2023-01-22T22:11:55.889Z,22.73
2023-01-22T22:14:23.002Z,27.23
2023-01-22T22:16:51.535Z,20.60
2023-01-22T22:19:19.912Z,21.75
2023-01-22T22:21:47.049Z,24.65
2023-01-22T22:24:14.763Z,22.08
2023-01-22T22:26:44.879Z,20.33
2023-01-22T22:29:12.053Z,22.38
2023-01-22T22:31:39.544Z,22.55
2023-01-22T22:34:06.751Z,24.08
2023-01-22T22:36:34.172Z,26.40
2023-01-22T22:39:02.650Z,21.80
2023-01-22T22:41:32.461Z,24.80
2023-01-22T22:43:59.901Z,23.10
2023-01-22T22:46:29.424Z,22.25
2023-01-22T22:48:58.188Z,27.35
2023-01-22T22:51:30.962Z,25.42
2023-01-22T22:54:00.963Z,24.85
2023-01-22T22:56:29.363Z,20.30
2023-01-22T22:58:57.703Z,23.23
2023-01-22T23:01:26.072Z,24.35
2023-01-22T23:03:53.810Z,22.70
2023-01-22T23:06:29.746Z,24.75
2023-01-22T23:08:58.542Z,24.42
2023-01-22T23:11:28.444Z,26.63
2023-01-22T23:14:01.493Z,24.88
2023-01-22T23:16:32.651Z,24.90
2023-01-22T23:19:04.199Z,26.38
2023-01-22T23:21:31.444Z,27.42
2023-01-22T23:23:58.536Z,23.05
2023-01-22T23:26:30.970Z,24.77
2023-01-22T23:29:02.407Z,27.23
2023-01-22T23:31:31.824Z,27.10
2023-01-22T23:34:00.753Z,26.33
2023-01-22T23:36:27.899Z,27.35
2023-01-22T23:38:55.488Z,31.98
2023-01-22T23:41:23.193Z,26.55
2023-01-22T23:43:51.768Z,24.95
2023-01-22T23:46:28.651Z,29.70
2023-01-22T23:48:57.416Z,23.17
2023-01-22T23:51:25.286Z,24.02
2023-01-22T23:53:53.385Z,25.20
2023-01-22T23:56:25.847Z,26.08
2023-01-22T23:58:56.666Z,23.98
